Time;durP1;ratioP1;P1;durP2;ratioP2;P2;SDS_P1;SDS_P2;PMS_P1;PMS_P2;Temp;Humidity;BMP_temperature;BMP_pressure;BME280_temperature;BME280_humidity;BME280_pressure;Samples;Min_cycle;Max_cycle;Signal;HPM_P1;HPM_P2
2022/11/11 00:01:29;;;;;;;48.55;27.85;;;;;;;8.03;100.00;101878.81;5109250;28;20039;-65
2022/11/11 00:03:55;;;;;;;49.15;26.42;;;;;;;8.04;100.00;101888.56;5108923;28;20035;-69
2022/11/11 00:06:21;;;;;;;48.63;26.13;;;;;;;8.01;100.00;101886.91;5107725;28;20032;-70
2022/11/11 00:08:47;;;;;;;49.85;27.05;;;;;;;7.92;100.00;101897.19;5110359;28;20028;-71
2022/11/11 00:11:17;;;;;;;49.08;26.65;;;;;;;7.91;100.00;101900.81;5111895;28;20027;-71
2022/11/11 00:13:43;;;;;;;52.92;29.58;;;;;;;7.96;100.00;101901.47;5113147;28;20036;-70
2022/11/11 00:16:14;;;;;;;51.60;28.48;;;;;;;8.10;100.00;101898.94;5111374;28;20023;-65
2022/11/11 00:27:05;;;;;;;57.17;28.67;;;;;;;8.17;100.00;101914.56;5112771;28;20082;-65
2022/11/11 00:29:31;;;;;;;54.05;28.55;;;;;;;8.12;100.00;101908.59;5112422;28;20111;-65
2022/11/11 00:35:51;;;;;;;51.60;28.67;;;;;;;8.12;100.00;101913.06;5102155;28;20397;-65
2022/11/11 00:37:26;;;;;;;53.40;28.35;;;;;;;8.14;100.00;101919.19;5111994;28;20031;-65
2022/11/11 00:39:51;;;;;;;56.08;28.98;;;;;;;8.14;100.00;101911.19;5112061;28;20485;-65
2022/11/11 00:42:17;;;;;;;53.00;27.55;;;;;;;8.09;100.00;101929.28;5112014;28;20038;-66
2022/11/11 00:44:42;;;;;;;50.63;28.08;;;;;;;8.03;100.00;101922.41;5112233;28;20030;-66
2022/11/11 00:52:36;;;;;;;50.33;27.73;;;;;;;7.92;100.00;101915.91;5110868;28;20050;-65
2022/11/11 00:55:02;;;;;;;47.22;26.00;;;;;;;7.89;100.00;101905.38;5100865;28;20024;-66
2022/11/11 00:57:27;;;;;;;48.83;26.55;;;;;;;7.94;100.00;101916.69;5117897;27;20023;-66
2022/11/11 00:59:53;;;;;;;50.78;27.17;;;;;;;7.87;100.00;101908.13;5122342;27;20132;-67
2022/11/11 01:02:18;;;;;;;49.85;27.85;;;;;;;7.96;100.00;101918.34;5111430;28;20091;-66
2022/11/11 01:04:44;;;;;;;54.03;29.05;;;;;;;8.01;100.00;101916.31;5111020;28;20091;-65
2022/11/11 01:07:09;;;;;;;50.03;28.13;;;;;;;7.93;100.00;101912.31;5110476;28;20157;-65
2022/11/11 01:09:35;;;;;;;47.55;27.08;;;;;;;8.03;100.00;101898.38;5109783;28;20031;-66
2022/11/11 01:12:00;;;;;;;54.47;29.77;;;;;;;8.24;100.00;101921.34;5111941;28;20019;-66
2022/11/11 01:14:25;;;;;;;48.17;28.13;;;;;;;8.22;100.00;101925.06;5111972;28;20043;-66
2022/11/11 01:16:51;;;;;;;50.22;27.00;;;;;;;8.24;100.00;101917.78;5110726;28;20015;-65
2022/11/11 01:19:16;;;;;;;52.67;27.50;;;;;;;8.28;100.00;101914.00;5111372;28;20027;-64
2022/11/11 01:21:42;;;;;;;50.47;27.98;;;;;;;8.34;100.00;101925.25;5110044;28;20036;-66
2022/11/11 01:24:07;;;;;;;54.03;29.05;;;;;;;8.36;100.00;101911.81;5111407;28;20020;-71
2022/11/11 01:26:32;;;;;;;45.22;27.38;;;;;;;8.37;100.00;101918.88;5111569;28;20039;-71
2022/11/11 01:28:58;;;;;;;48.83;26.83;;;;;;;8.31;100.00;101913.84;5111784;27;20350;-72
2022/11/11 01:31:25;;;;;;;49.80;27.60;;;;;;;8.24;100.00;101920.47;5111834;28;20052;-72
2022/11/11 01:33:51;;;;;;;47.35;27.55;;;;;;;8.13;100.00;101909.47;5112037;28;20448;-72
2022/11/11 01:36:18;;;;;;;49.85;26.27;;;;;;;8.12;100.00;101923.75;5111136;28;20144;-71
2022/11/11 01:38:48;;;;;;;47.10;27.65;;;;;;;8.19;100.00;101936.72;5111440;27;20016;-66
2022/11/11 01:41:33;;;;;;;52.22;28.65;;;;;;;8.23;100.00;101941.00;5111148;28;20367;-65
2022/11/11 01:44:11;;;;;;;45.20;26.13;;;;;;;8.21;100.00;101933.97;5093895;28;20039;-71
2022/11/11 01:46:41;;;;;;;45.72;27.20;;;;;;;8.18;100.00;101934.13;5110790;28;20055;-71
2022/11/11 01:49:18;;;;;;;49.35;27.15;;;;;;;8.16;100.00;101934.19;5104719;28;20471;-72
2022/11/11 01:51:53;;;;;;;51.92;28.05;;;;;;;8.21;100.00;101924.16;5111287;28;20164;-72
2022/11/11 01:54:40;;;;;;;50.50;28.08;;;;;;;8.18;100.00;101916.28;5105225;28;20069;-72
2022/11/11 01:57:33;;;;;;;44.72;26.55;;;;;;;8.16;100.00;101922.66;5104076;28;20023;-72
2022/11/11 02:00:10;;;;;;;45.50;26.55;;;;;;;8.17;100.00;101921.72;5084033;28;20043;-65
2022/11/11 02:02:39;;;;;;;46.50;26.40;;;;;;;8.17;100.00;101933.28;5110670;28;20471;-66
2022/11/11 02:07:52;;;;;;;47.05;26.38;;;;;;;8.07;100.00;101917.78;5109932;28;20130;-65
2022/11/11 02:10:22;;;;;;;47.35;25.90;;;;;;;8.04;100.00;101917.94;5109903;28;20547;-66
2022/11/11 02:15:32;;;;;;;;;;;;;;;8.04;100.00;101933.97;5110020;28;20080;-65
2022/11/11 02:17:58;;;;;;;49.97;26.17;;;;;;;8.09;100.00;101935.47;5108535;28;19915;-65
2022/11/11 02:20:27;;;;;;;47.63;27.50;;;;;;;8.07;100.00;101940.03;5109856;28;20023;-66
2022/11/11 02:23:06;;;;;;;48.30;26.77;;;;;;;8.01;100.00;101935.00;5109918;28;20042;-66
2022/11/11 02:25:33;;;;;;;50.65;26.50;;;;;;;8.00;100.00;101937.75;5109902;28;20111;-65
2022/11/11 02:28:03;;;;;;;49.50;28.23;;;;;;;7.94;100.00;101930.06;5108716;28;20023;-65
2022/11/11 02:30:29;;;;;;;41.35;25.60;;;;;;;8.02;100.00;101943.88;5110380;28;20482;-66
2022/11/11 02:32:54;;;;;;;45.35;26.42;;;;;;;8.01;100.00;101944.81;5109724;28;20110;-66
2022/11/11 02:35:24;;;;;;;44.47;25.63;;;;;;;8.01;100.00;101939.47;5108254;28;20023;-65
2022/11/11 02:37:51;;;;;;;49.05;27.88;;;;;;;7.99;100.00;101930.66;5107771;28;20036;-65
2022/11/11 02:40:22;;;;;;;49.92;27.98;;;;;;;8.01;100.00;101931.47;5108046;28;20345;-66
2022/11/11 02:42:47;;;;;;;49.22;27.98;;;;;;;8.04;100.00;101937.53;5109555;28;20058;-65
2022/11/11 02:45:13;;;;;;;41.00;25.70;;;;;;;7.96;100.00;101936.19;5110205;28;20036;-65
2022/11/11 02:47:39;;;;;;;45.83;28.80;;;;;;;7.99;100.00;101944.03;5108741;28;20711;-65
2022/11/11 02:50:05;;;;;;;48.25;27.15;;;;;;;8.11;100.00;101943.41;5109833;28;20027;-65
2022/11/11 02:52:31;;;;;;;42.70;25.13;;;;;;;8.06;100.00;101948.13;5106366;27;20035;-66
2022/11/11 02:54:56;;;;;;;44.22;26.27;;;;;;;7.99;100.00;101944.03;5103811;28;20032;-65
2022/11/11 02:57:22;;;;;;;48.28;27.33;;;;;;;7.93;100.00;101931.00;5109187;28;20028;-66
2022/11/11 02:59:47;;;;;;;45.80;26.27;;;;;;;7.95;100.00;101945.13;5108005;28;20142;-66
2022/11/11 03:02:13;;;;;;;43.58;25.38;;;;;;;7.93;100.00;101947.88;5109433;28;20028;-66
2022/11/11 03:04:38;;;;;;;49.70;27.13;;;;;;;7.91;100.00;101951.59;5110204;28;20023;-73
2022/11/11 03:07:05;;;;;;;43.28;26.40;;;;;;;7.87;100.00;101956.19;5111166;28;20035;-72
2022/11/11 03:09:30;;;;;;;41.53;24.33;;;;;;;7.86;100.00;101964.28;5110946;28;20047;-72
2022/11/11 03:11:56;;;;;;;44.35;25.05;;;;;;;7.81;100.00;101974.34;5111336;28;20027;-73
2022/11/11 03:14:22;;;;;;;40.67;25.48;;;;;;;7.72;100.00;101967.69;5110367;28;20031;-72
2022/11/11 03:19:32;;;;;;;42.83;26.02;;;;;;;7.73;100.00;101974.75;5110115;28;20035;-72
2022/11/11 03:21:58;;;;;;;47.47;27.00;;;;;;;7.66;100.00;101967.09;5110938;28;20067;-72
2022/11/11 03:25:36;;;;;;;39.63;24.42;;;;;;;7.64;100.00;101963.66;5111054;28;20030;-73
2022/11/11 03:27:10;;;;;;;42.20;25.45;;;;;;;7.51;100.00;101963.38;5109447;28;20020;-71
2022/11/11 03:29:35;;;;;;;44.75;23.98;;;;;;;7.51;100.00;101962.53;5109413;28;20553;-71
2022/11/11 03:32:01;;;;;;;44.85;24.77;;;;;;;7.45;100.00;101965.50;5110553;28;20031;-71
2022/11/11 03:34:26;;;;;;;42.92;24.67;;;;;;;7.40;100.00;101959.50;5109226;28;20066;-71
2022/11/11 03:39:36;;;;;;;42.70;24.27;;;;;;;7.30;100.00;101964.44;5107752;28;20038;-71
2022/11/11 03:42:01;;;;;;;36.35;22.48;;;;;;;7.22;100.00;101965.75;5108575;28;20475;-73
2022/11/11 03:44:27;;;;;;;39.60;23.95;;;;;;;7.20;100.00;101964.94;5108070;28;20035;-71
2022/11/11 03:46:54;;;;;;;40.28;23.20;;;;;;;7.13;100.00;101971.50;5108417;28;20716;-72
2022/11/11 03:49:19;;;;;;;40.03;22.73;;;;;;;7.12;100.00;101969.78;5107248;28;20023;-70
2022/11/11 03:51:45;;;;;;;40.47;23.08;;;;;;;7.08;100.00;101966.41;5107748;28;20027;-72
2022/11/11 03:54:11;;;;;;;38.13;22.33;;;;;;;7.01;100.00;101967.63;5104921;28;20052;-71
2022/11/11 03:56:36;;;;;;;43.35;23.95;;;;;;;6.99;100.00;101986.38;5097039;28;20019;-71
2022/11/11 03:59:02;;;;;;;37.92;23.10;;;;;;;6.88;100.00;101979.81;5109195;28;20034;-71
2022/11/11 04:12:23;;;;;;;42.33;23.63;;;;;;;6.81;100.00;101999.69;5108371;28;20050;-65
2022/11/11 04:17:33;;;;;;;40.78;22.90;;;;;;;6.82;100.00;102022.75;5107081;28;20514;-65
2022/11/11 04:22:42;;;;;;;40.33;22.90;;;;;;;6.64;100.00;101997.78;5108971;28;20084;-66
2022/11/11 04:29:27;;;;;;;38.75;20.95;;;;;;;6.57;100.00;102007.00;5109059;28;20512;-66
2022/11/11 04:30:41;;;;;;;34.63;20.35;;;;;;;6.38;100.00;101979.41;5108175;28;20027;-66
2022/11/11 04:33:06;;;;;;;36.88;21.25;;;;;;;6.60;100.00;102021.97;5108350;28;20031;-66
2022/11/11 04:35:32;;;;;;;38.60;21.27;;;;;;;6.48;100.00;102012.72;5101446;28;20085;-66
2022/11/11 04:41:02;;;;;;;36.35;20.02;;;;;;;6.48;100.00;102012.72;5108046;28;20031;-66
2022/11/11 04:43:27;;;;;;;37.75;22.52;;;;;;;6.38;100.00;102014.06;5102073;28;20042;-72
2022/11/11 04:45:52;;;;;;;33.80;21.05;;;;;;;6.29;100.00;101997.63;5106642;28;20048;-72
2022/11/11 04:48:19;;;;;;;31.48;19.80;;;;;;;6.24;100.00;102002.25;5108572;28;20110;-71
2022/11/11 04:50:45;;;;;;;33.15;20.48;;;;;;;6.29;100.00;102025.09;5108168;28;20069;-71
2022/11/11 04:53:13;;;;;;;36.40;21.15;;;;;;;6.28;100.00;102019.84;5108878;28;20036;-72
2022/11/11 04:58:27;;;;;;;33.30;19.42;;;;;;;6.13;100.00;102021.38;5112468;28;20062;-72
2022/11/11 05:00:52;;;;;;;36.05;20.55;;;;;;;6.23;100.00;102038.69;5112816;28;20050;-71
2022/11/11 05:03:20;;;;;;;32.25;20.02;;;;;;;6.16;100.00;102034.56;5112563;28;20463;-72
2022/11/11 05:09:00;;;;;;;28.75;18.67;;;;;;;6.09;100.00;102046.41;5112207;28;20039;-71
2022/11/11 05:11:30;;;;;;;28.65;18.63;;;;;;;6.06;100.00;102054.53;5112116;28;20110;-72
2022/11/11 05:22:37;;;;;;;;;;;;;;;6.00;100.00;102060.09;5112765;28;20034;-71
2022/11/11 05:27:48;;;;;;;31.30;19.17;;;;;;;6.07;100.00;102058.06;5111837;28;20402;-71
2022/11/11 05:30:15;;;;;;;32.63;20.10;;;;;;;6.12;100.00;102064.94;5106652;28;20032;-71
2022/11/11 05:32:41;;;;;;;33.25;20.38;;;;;;;6.15;100.00;102064.81;5111739;28;20035;-71
2022/11/11 05:35:07;;;;;;;31.95;20.42;;;;;;;6.18;100.00;102063.81;5112260;27;20152;-72
2022/11/11 05:37:33;;;;;;;29.08;19.10;;;;;;;6.22;100.00;102065.41;5110290;28;20024;-70
2022/11/11 05:39:58;;;;;;;29.67;19.35;;;;;;;6.20;100.00;102067.28;5111483;28;20039;-70
2022/11/11 05:42:24;;;;;;;29.05;19.65;;;;;;;6.24;100.00;102067.09;5111441;28;20102;-66
2022/11/11 05:44:49;;;;;;;31.05;19.25;;;;;;;6.26;100.00;102070.53;5111551;28;20443;-65
2022/11/11 05:47:15;;;;;;;30.33;19.75;;;;;;;6.33;100.00;102079.16;5090468;28;20044;-65
2022/11/11 05:49:40;;;;;;;29.48;19.17;;;;;;;6.28;100.00;102070.47;5089535;28;20110;-65
2022/11/11 05:52:08;;;;;;;27.55;18.25;;;;;;;6.26;100.00;102075.88;5091437;28;20016;-66
2022/11/11 05:54:34;;;;;;;27.05;18.52;;;;;;;6.31;100.00;102092.53;5105818;28;20047;-66
2022/11/11 05:56:59;;;;;;;32.67;20.30;;;;;;;6.29;100.00;102091.72;5111169;28;20020;-66
2022/11/11 05:59:25;;;;;;;31.27;18.42;;;;;;;6.29;100.00;102102.38;5110563;28;20023;-65
2022/11/11 06:01:50;;;;;;;29.40;19.00;;;;;;;6.27;100.00;102104.25;5110751;28;20016;-67
2022/11/11 06:04:16;;;;;;;31.02;18.98;;;;;;;6.33;100.00;102105.78;5110941;28;20102;-67
2022/11/11 06:06:41;;;;;;;28.30;18.80;;;;;;;6.38;100.00;102114.44;5110283;28;20402;-67
2022/11/11 06:09:06;;;;;;;30.30;19.40;;;;;;;6.35;100.00;102111.91;5111136;28;20037;-66
2022/11/11 06:11:32;;;;;;;32.95;20.80;;;;;;;6.41;100.00;102109.88;5109513;28;20050;-66
2022/11/11 06:13:58;;;;;;;37.72;22.63;;;;;;;6.44;100.00;102122.19;5110837;27;20555;-66
2022/11/11 06:16:23;;;;;;;35.85;22.55;;;;;;;6.37;100.00;102102.06;5111197;28;20019;-65
2022/11/11 06:18:50;;;;;;;33.70;22.02;;;;;;;6.44;100.00;102112.41;5111153;28;20027;-65
2022/11/11 06:21:16;;;;;;;38.75;23.85;;;;;;;6.41;100.00;102098.34;5111203;28;20117;-66
2022/11/11 06:23:42;;;;;;;41.25;25.65;;;;;;;6.53;100.00;102125.34;5110950;28;20107;-66
2022/11/11 06:26:11;;;;;;;50.50;25.98;;;;;;;6.55;100.00;102114.63;5111088;28;20172;-64
2022/11/11 06:28:42;;;;;;;44.88;26.02;;;;;;;6.57;100.00;102110.94;5111142;28;20028;-66
2022/11/11 06:31:09;;;;;;;40.47;25.52;;;;;;;6.54;100.00;102102.22;5110977;28;20028;-67
2022/11/11 06:33:36;;;;;;;38.13;24.05;;;;;;;6.64;100.00;102108.88;5110536;28;20115;-67
2022/11/11 06:36:03;;;;;;;42.35;25.20;;;;;;;6.65;100.00;102111.47;5110339;28;20113;-66
2022/11/11 06:38:29;;;;;;;43.97;25.33;;;;;;;6.65;100.00;102102.63;5110501;28;20172;-66
2022/11/11 06:40:54;;;;;;;39.10;25.95;;;;;;;6.63;100.00;102093.81;5110436;28;20106;-66
2022/11/11 06:43:20;;;;;;;40.60;24.02;;;;;;;6.73;100.00;102105.81;5110663;28;20043;-72
2022/11/11 06:45:49;;;;;;;40.78;24.50;;;;;;;6.78;100.00;102106.50;5110250;28;20051;-72
2022/11/11 06:48:15;;;;;;;42.13;25.15;;;;;;;6.79;100.00;102098.44;5110552;28;20108;-72
2022/11/11 06:50:40;;;;;;;37.78;22.73;;;;;;;6.83;100.00;102113.34;5110467;28;20027;-72
2022/11/11 06:53:12;;;;;;;40.38;24.48;;;;;;;6.89;100.00;102122.88;5108529;28;20088;-72
2022/11/11 06:55:37;;;;;;;40.28;23.58;;;;;;;6.92;100.00;102120.97;5111198;28;20032;-72
2022/11/11 06:58:11;;;;;;;51.03;29.27;;;;;;;7.09;100.00;102122.00;5110185;28;20030;-72
2022/11/11 07:00:38;;;;;;;48.90;27.80;;;;;;;7.12;100.00;102128.06;5110747;28;20027;-72
2022/11/11 07:03:05;;;;;;;42.20;26.45;;;;;;;7.22;100.00;102136.53;5109524;28;20502;-71
2022/11/11 07:05:32;;;;;;;39.85;25.23;;;;;;;7.27;100.00;102132.72;5108276;28;20393;-71
2022/11/11 07:08:01;;;;;;;40.35;25.65;;;;;;;7.36;100.00;102128.75;5110133;28;20024;-72
2022/11/11 07:10:27;;;;;;;42.83;25.65;;;;;;;7.35;100.00;102133.22;5110237;27;20073;-73
2022/11/11 07:12:52;;;;;;;41.08;24.42;;;;;;;7.36;100.00;102137.63;5108661;28;20036;-72
2022/11/11 07:15:18;;;;;;;42.33;24.27;;;;;;;7.35;100.00;102135.03;5108761;28;20043;-72
2022/11/11 07:17:43;;;;;;;39.90;25.30;;;;;;;7.41;100.00;102143.63;5109354;28;20028;-72
2022/11/11 07:20:09;;;;;;;41.15;26.08;;;;;;;7.44;100.00;102137.25;5110092;28;20529;-72
2022/11/11 07:22:35;;;;;;;47.45;27.35;;;;;;;7.72;100.00;102148.41;5108554;28;20019;-66
2022/11/11 07:25:01;;;;;;;43.42;26.52;;;;;;;7.75;100.00;102143.81;5110182;27;20023;-66
2022/11/11 07:27:26;;;;;;;46.90;27.27;;;;;;;7.71;100.00;102125.31;5109903;28;20143;-66
2022/11/11 07:29:52;;;;;;;47.53;27.88;;;;;;;7.75;100.00;102135.78;5110451;28;20399;-73
2022/11/11 07:32:18;;;;;;;53.15;28.75;;;;;;;7.82;100.00;102160.38;5110290;28;20039;-72
2022/11/11 07:34:43;;;;;;;48.10;28.50;;;;;;;7.85;100.00;102166.47;5109880;28;20032;-71
2022/11/11 07:37:09;;;;;;;42.88;25.27;;;;;;;7.90;100.00;102171.59;5107919;28;20420;-71
2022/11/11 07:39:34;;;;;;;43.22;27.42;;;;;;;7.90;100.00;102167.09;5110094;28;20440;-72
2022/11/11 07:42:00;;;;;;;40.85;25.55;;;;;;;7.88;100.00;102155.63;5109929;28;20058;-72
2022/11/11 07:44:26;;;;;;;40.65;25.13;;;;;;;8.08;100.00;102176.03;5110410;28;20091;-72
2022/11/11 07:46:51;;;;;;;40.42;25.58;;;;;;;8.15;100.00;102172.13;5109322;28;20043;-72
2022/11/11 07:49:17;;;;;;;41.55;25.90;;;;;;;8.20;100.00;102181.69;5109066;28;20051;-65
2022/11/11 07:51:43;;;;;;;39.55;25.48;;;;;;;8.21;100.00;102161.16;5107951;28;20035;-66
2022/11/11 07:54:08;;;;;;;36.45;23.75;;;;;;;8.37;100.00;102189.78;5108687;28;20028;-67
2022/11/11 07:56:34;;;;;;;39.17;24.60;;;;;;;8.33;100.00;102173.97;5107674;28;20028;-66
2022/11/11 07:58:59;;;;;;;37.50;24.63;;;;;;;8.49;100.00;102190.97;5109091;28;20024;-66
2022/11/11 08:01:25;;;;;;;39.58;24.95;;;;;;;8.50;100.00;102198.94;5109297;28;20070;-66
2022/11/11 08:03:50;;;;;;;44.05;25.30;;;;;;;8.57;100.00;102202.16;5107695;28;20020;-66
2022/11/11 08:06:20;;;;;;;46.17;26.13;;;;;;;8.63;100.00;102204.53;5108206;28;20494;-66
2022/11/11 08:08:47;;;;;;;43.13;26.35;;;;;;;8.57;100.00;102189.66;5109468;28;20032;-65
2022/11/11 08:11:13;;;;;;;48.25;28.52;;;;;;;8.64;100.00;102190.22;5109542;28;20035;-65
2022/11/11 08:13:42;;;;;;;43.67;26.63;;;;;;;8.76;100.00;102206.53;5109101;28;20868;-65
2022/11/11 08:16:13;;;;;;;41.28;26.00;;;;;;;8.90;100.00;102212.03;5109072;28;20027;-65
2022/11/11 08:18:39;;;;;;;43.42;27.48;;;;;;;9.03;100.00;102214.97;5108742;28;20028;-65
2022/11/11 08:21:06;;;;;;;41.70;27.40;;;;;;;9.26;100.00;102206.59;5108758;28;20027;-66
2022/11/11 08:23:32;;;;;;;45.33;28.48;;;;;;;9.32;100.00;102208.94;5109181;28;20382;-67
2022/11/11 08:26:02;;;;;;;38.63;25.15;;;;;;;9.46;100.00;102202.84;5107459;28;20108;-66
2022/11/11 08:28:30;;;;;;;41.35;26.35;;;;;;;9.75;100.00;102216.44;5109083;28;20399;-66
2022/11/11 08:31:00;;;;;;;40.03;26.40;;;;;;;9.83;100.00;102222.22;5112176;28;20031;-66
2022/11/11 08:33:25;;;;;;;43.28;27.50;;;;;;;9.87;100.00;102215.75;5111847;28;20032;-66
2022/11/11 08:35:54;;;;;;;43.50;27.33;;;;;;;9.96;100.00;102219.75;5112759;28;20052;-65
2022/11/11 08:38:22;;;;;;;45.05;27.52;;;;;;;10.24;100.00;102234.25;5112843;28;20374;-65
2022/11/11 08:40:50;;;;;;;42.13;25.75;;;;;;;10.20;100.00;102230.00;5111252;28;20035;-66
2022/11/11 08:43:15;;;;;;;46.33;26.13;;;;;;;10.28;100.00;102238.47;5113080;28;20031;-65
2022/11/11 08:45:41;;;;;;;39.95;24.92;;;;;;;10.21;100.00;102231.75;5112670;28;20046;-66
2022/11/11 08:48:10;;;;;;;40.80;24.52;;;;;;;10.37;100.00;102232.59;5112577;28;20086;-67
2022/11/11 08:50:40;;;;;;;37.70;23.20;;;;;;;10.54;100.00;102235.19;5111358;28;20755;-66
2022/11/11 08:53:07;;;;;;;37.67;24.27;;;;;;;10.48;100.00;102230.16;5096819;28;20475;-66
2022/11/11 08:55:33;;;;;;;41.40;25.20;;;;;;;10.49;100.00;102233.72;5112588;28;20437;-65
2022/11/11 08:58:01;;;;;;;41.78;24.42;;;;;;;10.63;100.00;102247.22;5110507;28;20030;-66
2022/11/11 09:00:27;;;;;;;43.95;26.05;;;;;;;10.75;100.00;102243.81;5112736;28;20099;-66
2022/11/11 09:02:53;;;;;;;39.88;23.60;;;;;;;10.88;100.00;102228.72;5112329;28;20130;-66
2022/11/11 09:05:18;;;;;;;35.28;22.92;;;;;;;11.14;100.00;102226.25;5111066;28;20028;-66
2022/11/11 09:07:44;;;;;;;34.50;22.05;;;;;;;11.30;100.00;102200.19;5111009;28;20035;-65
2022/11/11 09:10:09;;;;;;;29.70;20.45;;;;;;;11.66;100.00;102213.19;5112171;28;20554;-65
2022/11/11 09:12:35;;;;;;;32.72;22.83;;;;;;;11.70;100.00;102203.13;5111766;28;20126;-65
2022/11/11 09:15:00;;;;;;;35.60;20.10;;;;;;;11.87;100.00;102211.00;5112035;28;20040;-65
2022/11/11 09:17:26;;;;;;;29.67;19.40;;;;;;;12.11;100.00;102223.75;5111159;28;20016;-65
2022/11/11 09:19:52;;;;;;;32.35;21.27;;;;;;;12.32;97.80;102213.44;5111465;28;20102;-65
2022/11/11 09:22:17;;;;;;;30.02;20.83;;;;;;;12.42;98.01;102215.44;5111399;28;20102;-65
2022/11/11 09:24:42;;;;;;;33.15;21.70;;;;;;;12.52;95.74;102207.59;5111672;28;20032;-65
2022/11/11 09:27:09;;;;;;;33.22;21.17;;;;;;;12.66;96.18;102221.00;5110797;28;20031;-65
2022/11/11 09:29:35;;;;;;;36.63;22.17;;;;;;;12.69;96.27;102221.69;5101271;28;20142;-65
2022/11/11 09:32:00;;;;;;;30.08;20.45;;;;;;;12.73;94.98;102209.72;5105251;28;20118;-65
2022/11/11 09:34:26;;;;;;;29.48;20.63;;;;;;;12.68;94.74;102198.41;5109629;28;20111;-71
2022/11/11 09:36:51;;;;;;;33.45;21.75;;;;;;;12.75;94.91;102213.19;5111425;28;20443;-71
2022/11/11 09:39:16;;;;;;;30.80;20.45;;;;;;;12.88;94.98;102215.91;5111046;28;20169;-72
2022/11/11 09:41:42;;;;;;;37.28;22.58;;;;;;;13.08;92.48;102210.06;5110259;28;20077;-71
2022/11/11 09:44:24;;;;;;;34.25;23.30;;;;;;;13.02;92.80;102197.00;5111115;28;20046;-71
2022/11/11 09:47:16;;;;;;;35.42;23.80;;;;;;;13.00;93.39;102205.19;5110913;28;20486;-72
2022/11/11 09:49:57;;;;;;;37.47;24.00;;;;;;;12.97;93.75;102205.38;5110262;28;20027;-72
2022/11/11 09:52:30;;;;;;;39.53;26.05;;;;;;;12.90;93.68;102201.38;5111313;28;20031;-71
2022/11/11 09:55:13;;;;;;;38.57;25.07;;;;;;;12.95;93.23;102201.94;5111048;27;20024;-71
2022/11/11 09:57:45;;;;;;;32.95;22.73;;;;;;;12.97;94.08;102196.44;5111140;28;20646;-71
2022/11/11 10:00:17;;;;;;;37.28;23.40;;;;;;;13.03;94.16;102212.22;5109738;28;20027;-66
2022/11/11 10:02:49;;;;;;;33.92;22.42;;;;;;;13.11;94.37;102199.09;5110883;28;20606;-65
2022/11/11 10:05:26;;;;;;;38.63;22.80;;;;;;;13.25;93.81;102196.28;5111070;28;20061;-65
2022/11/11 10:08:06;;;;;;;34.65;23.40;;;;;;;13.41;92.19;102199.66;5110396;28;20413;-64
2022/11/11 10:10:46;;;;;;;31.67;21.75;;;;;;;13.42;92.18;102191.47;5110694;28;20062;-65
2022/11/11 10:13:22;;;;;;;34.45;22.35;;;;;;;13.67;89.65;102194.16;5110884;28;20035;-65
2022/11/11 10:16:02;;;;;;;35.63;22.63;;;;;;;13.75;89.91;102193.63;5109132;28;20070;-65
2022/11/11 10:18:28;;;;;;;35.15;22.67;;;;;;;13.87;89.48;102194.59;5110996;28;20488;-70
2022/11/11 10:20:55;;;;;;;35.88;22.58;;;;;;;13.93;88.89;102186.88;5110336;28;20106;-65
2022/11/11 10:23:34;;;;;;;34.58;23.20;;;;;;;14.00;88.84;102190.91;5108617;28;20451;-66
2022/11/11 10:26:24;;;;;;;36.42;22.95;;;;;;;14.08;88.44;102188.50;5107658;28;20539;-66
2022/11/11 10:28:52;;;;;;;33.85;23.60;;;;;;;14.10;87.26;102182.97;5106487;28;20034;-66
2022/11/11 10:31:21;;;;;;;33.35;21.95;;;;;;;14.09;86.22;102175.88;5108362;28;20493;-65
2022/11/11 10:33:59;;;;;;;33.90;21.60;;;;;;;14.20;86.38;102203.81;5109827;28;20028;-65
2022/11/11 10:36:28;;;;;;;35.33;22.25;;;;;;;14.18;86.04;102184.16;5110240;28;20505;-65
2022/11/11 10:39:02;;;;;;;31.40;21.20;;;;;;;14.18;86.10;102183.31;5110565;28;20019;-65
2022/11/11 10:41:38;;;;;;;35.25;22.98;;;;;;;14.17;86.07;102174.34;5108282;28;20096;-67
2022/11/11 10:44:21;;;;;;;35.75;23.13;;;;;;;14.23;85.82;102182.03;5095146;28;20031;-66
2022/11/11 10:47:02;;;;;;;32.72;22.98;;;;;;;14.33;84.72;102185.75;5108102;28;20108;-66
2022/11/11 10:49:33;;;;;;;35.78;23.77;;;;;;;14.34;83.51;102167.69;5109954;28;20046;-66
2022/11/11 10:52:15;;;;;;;35.75;22.65;;;;;;;14.42;83.31;102177.00;5102926;28;20027;-67
2022/11/11 10:54:53;;;;;;;34.20;22.15;;;;;;;14.46;83.09;102172.19;5108658;28;20035;-66
2022/11/11 10:57:35;;;;;;;35.55;21.23;;;;;;;14.52;81.79;102166.34;5109742;28;20043;-66
2022/11/11 11:00:14;;;;;;;32.42;21.80;;;;;;;14.48;82.50;102160.31;5099648;28;20023;-66
2022/11/11 11:02:55;;;;;;;31.08;21.08;;;;;;;14.55;82.96;102161.59;5109010;28;20024;-65
2022/11/11 11:05:44;;;;;;;30.70;20.00;;;;;;;14.59;81.62;102152.28;5109548;28;20038;-65
2022/11/11 11:08:26;;;;;;;29.20;18.85;;;;;;;14.64;80.14;102138.44;5109276;28;20475;-66
2022/11/11 11:10:58;;;;;;;29.95;19.40;;;;;;;14.67;80.25;102133.63;5109740;28;20047;-65
2022/11/11 11:13:35;;;;;;;32.40;21.15;;;;;;;14.75;79.36;102133.94;5107890;28;20043;-65
2022/11/11 11:16:17;;;;;;;33.90;21.80;;;;;;;14.69;81.10;102126.28;5108423;28;20032;-65
2022/11/11 11:18:43;;;;;;;28.48;19.33;;;;;;;14.68;82.12;102129.97;5108273;28;20035;-66
2022/11/11 11:21:09;;;;;;;29.10;18.83;;;;;;;14.70;80.42;102121.75;5107776;28;20119;-66
2022/11/11 11:23:40;;;;;;;28.80;19.00;;;;;;;14.70;79.84;102127.16;5109469;28;20569;-66
2022/11/11 11:26:07;;;;;;;23.55;15.88;;;;;;;14.74;78.77;102113.28;5108583;28;20060;-67
2022/11/11 11:28:33;;;;;;;26.75;17.75;;;;;;;14.88;75.26;102109.53;5107570;28;20055;-67
2022/11/11 11:31:01;;;;;;;25.67;17.33;;;;;;;14.74;75.18;102091.66;5109674;28;20415;-65
2022/11/11 11:33:26;;;;;;;28.48;17.35;;;;;;;14.81;76.98;102109.16;5107837;28;20494;-65
2022/11/11 11:35:52;;;;;;;26.05;15.75;;;;;;;14.75;74.90;102095.22;5109524;28;20072;-66
2022/11/11 11:38:18;;;;;;;24.33;16.30;;;;;;;14.80;76.52;102098.47;5096853;28;20053;-66
2022/11/11 11:40:52;;;;;;;27.10;16.05;;;;;;;14.77;76.47;102104.94;5108013;28;20027;-66
2022/11/11 11:43:32;;;;;;;;;;;;;;;14.85;74.30;102101.66;5109857;28;20126;-66
2022/11/11 11:46:00;;;;;;;23.42;14.85;;;;;;;14.78;75.04;102095.88;5105561;28;19927;-66
2022/11/11 11:48:44;;;;;;;32.70;22.13;;;;;;;14.70;75.90;102100.16;5108385;28;20359;-66
2022/11/11 11:51:19;;;;;;;29.13;21.02;;;;;;;14.74;74.89;102115.97;5109459;28;20472;-67
2022/11/11 11:54:01;;;;;;;25.60;17.05;;;;;;;14.68;75.85;102104.78;5109342;28;20102;-67
2022/11/11 11:56:37;;;;;;;24.98;14.85;;;;;;;14.72;74.16;102106.28;5109298;28;20147;-66
2022/11/11 11:59:35;;;;;;;25.23;14.90;;;;;;;14.70;74.64;102100.16;5102114;28;20058;-66
2022/11/11 12:02:32;;;;;;;24.67;15.02;;;;;;;14.65;75.23;102110.44;5091174;28;20470;-66
2022/11/11 12:05:20;;;;;;;19.50;13.13;;;;;;;14.62;75.41;102118.75;5110290;28;20024;-67
2022/11/11 12:07:46;;;;;;;23.67;15.20;;;;;;;14.62;74.16;102119.63;5112541;28;20027;-67
2022/11/11 12:10:41;;;;;;;21.88;13.50;;;;;;;14.64;74.68;102114.13;5113196;28;20139;-65
2022/11/11 12:13:33;;;;;;;22.05;13.95;;;;;;;14.63;74.73;102120.47;5112667;28;20020;-66
2022/11/11 12:16:10;;;;;;;20.27;13.70;;;;;;;14.48;75.48;102098.19;5113911;28;20046;-70
2022/11/11 12:19:04;;;;;;;19.95;13.25;;;;;;;14.57;76.27;102119.09;5114082;28;20653;-71
2022/11/11 12:22:11;;;;;;;18.73;12.25;;;;;;;14.60;76.39;102126.97;5112702;28;20019;-67
2022/11/11 12:25:07;;;;;;;20.00;12.02;;;;;;;14.66;74.72;102121.13;5112912;28;20039;-66
2022/11/11 12:27:55;;;;;;;24.85;14.65;;;;;;;14.68;73.61;102115.59;5112684;28;20032;-66